Daisytown, PA (15427)

1:18 PM EDT on July 07, 2015 (GMT -0400)
Belle Vernon | | Change Station
CLOSE
Current Station
Personal Weather Station
Location: Belle Vernon, PA
Elevation: 996 ft
Nearby Weather Stations

Elev 996 ft 40.12 °N, 79.85 °W | Updated 7 seconds ago

Partly Cloudy
Partly Cloudy
88.3 °F
Feels Like 100 °F
N
0.0
Wind Variable Wind from NW
Gusts 0.0 mph

Today
High -- | Low -- °F
--% Chance of Precip.
Yesterday
High -- | Low -- °F
Precip. -- in
5:57 AM 8:51 PM
Waning Gibbous, 63% visible
Pressure 30.00 in
Visibility 10.0 miles
Clouds Few 2900 ft
Scattered Clouds 3600 ft
Mostly Cloudy 4300 ft
Heat Index 100 °F
Dew Point 76 °F
Humidity 68%
Rainfall 0.00 in
Snow Depth Not available.
UV 6 out of 12
Pollen 3.40 out of 12
Air Quality Not available.
Flu Activity Not available.
METAR KAGC 071653Z 21007G17KT 170V250 10SM FEW029 SCT036 BKN043 28/19 A3001 RMK AO2 SLP158 T02780189

More Conditions Fewer Conditions

Pressure 30.00 in
Visibility 10.0 miles
Clouds Few 2900 ft
Scattered Clouds 3600 ft
Mostly Cloudy 4300 ft
Heat Index 100 °F
Dew Point 76 °F
Humidity 68%
Rainfall 0.00 in
Snow Depth Not available.
UV 6 out of 12
Pollen 3.40 out of 12
Air Quality Not available.
Flu Activity Not available.
METAR KAGC 071653Z 21007G17KT 170V250 10SM FEW029 SCT036 BKN043 28/19 A3001 RMK AO2 SLP158 T02780189

More Conditions Fewer Conditions

10-Day Weather Forecast

×

Almanac

Astronomy

Jul. 07, 2015 Rise Set
Actual Time
Civil Twilight
Nautical Twilight
Astronomical Twilight
Moon
Length of Visible Light
Length of Day
Tomorrow will be .
, % of the Moon is Illuminated

Today's Extremes

State Highs State Lows

Community

WunderPhotos

Upload Photos

1,835,857 photos uploaded!

WunderBlogs® & News

Nearby

Air Quality

  Air Quality AQ Index Pollutant
Not available.

Snow Depth

Station Depth Elevation

Earthquake Activity

City Distance Mag. Time & Date
Minimum magnitude displayed is 2.5.

Coastal Water Temperatures

Place Temperature

Stations

Nearby Weather Stations

Station Location Temp. Windchill Dew Point Humidity Wind Precip. Elev Updated Type